Etusivu
METAR-TAF:

METAR-TAF

Lentoasemat :

Richard I. Bong Airport

Superior, Wisconsin, Yhdysvallat

Leveyspiiri: 46-41-23N, Pituuspiiri: 092-05-41W, korkeus merenpinnasta: 205 m

Tämänhetkinen sää

Tämä raportti tehtiin 47 minuuttia sitten, kello 16.15 UTC
Tuuli 3 kn pohjoisen/luoteesta
Lämpötila 7°C
Kosteus 76%
Ilmanpaine 1019 hPa
Näkyvyys: 16.1 km
Hajonneita pilviä 1900 ft:n korkeudessa
Pilvistä 5000 ft:n korkeudessa

METAR: KSUW 161615Z AUTO 33003KT 10SM BKN019 OVC050 07/03 A3009 RMK AO2 T00670029

Aika: 12:02 (17:02 UTC)


TAF: puuttuu

Säähavainnot ja -ennusteet yli 4000 lentoasemalta (METAR- ja TAF-raportit).

Käytössä olevat sääasemat on merkitty karttaan keltaisilla ja punaisilla pisteillä.

Aseta hiiri pisteen päälle nähdäksesi sääaseman nimen.

Klikkaa sitten nähdäksesi säähavainnot ja -ennusteet.

Kartan vaihtaminen: klikkaa mustalla rastilla varustettuja vihreitä pisteitä, niin voit zoomata sisään; viivalla varustettua vihreää pistettä, niin voit zoomata ulos tai vihreitä nuolia, niin pääset viereisille kartoille.


METAR-TAF: